Caraubas, Brazil
Current Conditions -  °F | °C
As of 5:00 AM on Sunday 23 Nov 2014 (Local Time) from SBKG Reporting Station
Broken Clouds Broken Clouds  
Wind Chill: 70°   Ceiling: 1200
Heat Index: 70°   Visibility: 6mi
Dew Point: 68°   Wind: 7mph
Humidity: 94%   Direction: 100°E
Pressure: 29.97"   Gusts: NA
Location:  5.79°S, 37.56°W
Report Text: SBKG 230800Z 10006KT 9000 FEW003 SCT006 BKN012 21/20 Q1015
Loading
Personal Weather Stations






























Interactive Weather Map New forecast layout! Learn more

10-Day Weather Forecast

Advertisements
Track Severe Weather on mobile